createdAt,value
2018-11-10T00:00:17.856Z,71.23
2018-11-10T00:02:46.529Z,58.97
2018-11-10T00:05:15.020Z,60.67
2018-11-10T00:07:43.248Z,57.80
2018-11-10T00:10:11.475Z,66.87
2018-11-10T00:12:39.599Z,72.57
2018-11-10T00:15:09.455Z,52.37
2018-11-10T00:17:37.575Z,43.67
2018-11-10T00:20:05.774Z,48.07
2018-11-10T00:22:33.919Z,51.50
2018-11-10T00:25:02.077Z,71.43
2018-11-10T00:27:30.252Z,50.17
2018-11-10T00:29:58.466Z,63.00
2018-11-10T00:32:26.600Z,60.63
2018-11-10T00:34:54.801Z,57.03
2018-11-10T00:37:22.963Z,57.87
2018-11-10T00:39:51.179Z,62.83
2018-11-10T00:42:19.284Z,56.17
2018-11-10T00:44:47.385Z,64.23
2018-11-10T00:47:15.527Z,64.47
2018-11-10T00:49:43.615Z,51.63
2018-11-10T00:52:11.784Z,64.17
2018-11-10T00:54:39.983Z,65.40
2018-11-10T00:57:08.157Z,75.53
2018-11-10T00:59:36.312Z,43.27
2018-11-10T01:02:04.497Z,52.10
2018-11-10T01:04:32.656Z,54.47
2018-11-10T01:07:00.873Z,71.47
2018-11-10T01:09:29.012Z,58.27
2018-11-10T01:11:57.195Z,51.10
2018-11-10T01:14:25.371Z,54.33
2018-11-10T01:16:53.591Z,71.60
2018-11-10T01:19:21.737Z,59.83
2018-11-10T01:21:49.892Z,64.33
2018-11-10T01:24:18.065Z,51.07
2018-11-10T01:26:46.261Z,62.27
2018-11-10T01:29:14.396Z,66.43
2018-11-10T01:31:42.571Z,59.87
2018-11-10T01:34:10.756Z,87.93
2018-11-10T01:36:38.932Z,66.97
2018-11-10T01:39:08.700Z,81.20
2018-11-10T01:41:37.088Z,50.87
2018-11-10T01:44:05.716Z,74.10
2018-11-10T01:46:33.898Z,77.30
2018-11-10T01:49:02.111Z,80.57
2018-11-10T01:51:30.224Z,82.57
2018-11-10T01:53:58.587Z,71.27
2018-11-10T01:56:26.704Z,86.00
2018-11-10T01:58:55.144Z,73.23
2018-11-10T02:01:23.256Z,60.17
2018-11-10T02:03:51.441Z,67.27
2018-11-10T02:06:19.564Z,60.13
2018-11-10T02:08:47.696Z,71.90
2018-11-10T02:11:15.841Z,65.00
2018-11-10T02:13:44.079Z,85.60
2018-11-10T02:16:12.165Z,71.00
2018-11-10T02:18:40.781Z,63.33
2018-11-10T02:21:08.943Z,76.60
2018-11-10T02:23:37.095Z,71.67
2018-11-10T02:26:05.196Z,67.37
2018-11-10T02:28:33.387Z,73.67
2018-11-10T02:31:01.524Z,76.73
2018-11-10T02:33:29.700Z,85.93
2018-11-10T02:35:57.777Z,66.83
2018-11-10T02:38:25.877Z,82.93
2018-11-10T02:40:54.012Z,83.50
2018-11-10T02:43:22.109Z,68.90
2018-11-10T02:45:50.247Z,77.70
2018-11-10T02:48:18.328Z,70.60
2018-11-10T02:50:46.401Z,90.63
2018-11-10T02:53:14.517Z,68.70
2018-11-10T02:55:42.657Z,68.63
2018-11-10T02:58:10.721Z,73.07
2018-11-10T03:00:38.823Z,69.27
2018-11-10T03:03:07.037Z,68.00
2018-11-10T03:05:35.163Z,71.77
2018-11-10T03:08:03.317Z,71.70
2018-11-10T03:10:31.448Z,62.20
2018-11-10T03:12:59.565Z,81.90
2018-11-10T03:15:27.653Z,73.30
2018-11-10T03:17:55.871Z,88.97
2018-11-10T03:20:23.991Z,78.27
2018-11-10T03:22:52.064Z,66.70
2018-11-10T03:25:20.231Z,85.20
2018-11-10T03:27:48.313Z,72.53
2018-11-10T03:30:16.474Z,98.23
2018-11-10T03:32:44.548Z,72.87
2018-11-10T03:35:12.619Z,91.07
2018-11-10T03:37:41.221Z,68.40
2018-11-10T03:40:10.596Z,88.23
2018-11-10T03:42:39.281Z,80.47
2018-11-10T03:45:08.592Z,70.40
2018-11-10T03:47:36.717Z,86.97
2018-11-10T03:50:05.487Z,100.87
2018-11-10T03:52:33.640Z,75.40
2018-11-10T03:55:01.839Z,83.23
2018-11-10T03:57:29.981Z,86.77
2018-11-10T03:59:58.124Z,97.97
2018-11-10T04:02:26.244Z,87.10
2018-11-10T04:04:54.419Z,81.47
2018-11-10T04:07:22.605Z,103.90
2018-11-10T04:09:50.777Z,82.20
2018-11-10T04:12:18.959Z,82.90
2018-11-10T04:14:47.144Z,93.27
2018-11-10T04:17:15.289Z,97.57
2018-11-10T04:19:43.441Z,76.47
2018-11-10T04:22:11.524Z,102.80
2018-11-10T04:24:39.595Z,97.27
2018-11-10T04:27:07.700Z,108.47
2018-11-10T04:29:35.847Z,116.83
2018-11-10T04:32:03.935Z,88.80
2018-11-10T04:34:32.107Z,92.83
2018-11-10T04:37:00.381Z,91.97
2018-11-10T04:39:28.539Z,91.83
2018-11-10T04:41:56.607Z,110.00
2018-11-10T04:44:24.816Z,113.30
2018-11-10T04:46:52.973Z,101.67
2018-11-10T04:49:21.184Z,97.53
2018-11-10T04:51:49.334Z,90.93
2018-11-10T04:54:17.496Z,111.27
2018-11-10T04:56:45.657Z,104.73
2018-11-10T04:59:13.712Z,88.53
2018-11-10T05:01:41.808Z,101.03
2018-11-10T05:04:09.980Z,114.70
2018-11-10T05:06:38.028Z,92.73
2018-11-10T05:09:07.284Z,100.63
2018-11-10T05:11:35.428Z,87.87
2018-11-10T05:14:03.667Z,93.50
2018-11-10T05:16:31.800Z,108.90
2018-11-10T05:18:59.983Z,100.77
2018-11-10T05:21:28.143Z,100.87
2018-11-10T05:23:56.305Z,103.70
2018-11-10T05:26:24.472Z,84.80
2018-11-10T05:28:52.564Z,110.87
2018-11-10T05:31:20.786Z,91.80
2018-11-10T05:33:48.915Z,90.87
2018-11-10T05:36:17.066Z,93.17
2018-11-10T05:38:45.155Z,122.13
2018-11-10T05:41:13.304Z,116.30
2018-11-10T05:43:41.472Z,101.93
2018-11-10T05:46:09.553Z,90.50
2018-11-10T05:48:37.644Z,92.87
2018-11-10T05:51:05.845Z,83.33
2018-11-10T05:53:33.998Z,90.50
2018-11-10T05:56:02.161Z,95.60
2018-11-10T05:58:30.333Z,91.87
2018-11-10T06:00:58.420Z,94.40
2018-11-10T06:03:26.560Z,110.47
2018-11-10T06:05:54.652Z,109.17
2018-11-10T06:08:22.828Z,104.43
2018-11-10T06:10:51.027Z,82.60
2018-11-10T06:13:19.197Z,110.07
2018-11-10T06:15:47.376Z,88.20
2018-11-10T06:18:15.548Z,100.43
2018-11-10T06:20:43.711Z,112.00
2018-11-10T06:23:11.894Z,99.03
2018-11-10T06:25:40.037Z,86.37
2018-11-10T06:28:08.155Z,84.00
2018-11-10T06:30:36.295Z,93.70
2018-11-10T06:33:04.608Z,107.60
2018-11-10T06:35:32.734Z,97.67
2018-11-10T06:38:00.864Z,101.10
2018-11-10T06:40:28.982Z,76.73
2018-11-10T06:42:57.092Z,76.73
2018-11-10T06:45:25.326Z,98.00
2018-11-10T06:47:53.434Z,99.13
2018-11-10T06:50:21.593Z,98.70
2018-11-10T06:52:49.777Z,107.10
2018-11-10T06:55:18.012Z,93.37
2018-11-10T06:57:46.123Z,86.83
2018-11-10T07:00:15.402Z,81.47
2018-11-10T07:02:43.657Z,88.30
2018-11-10T07:05:12.371Z,80.53
2018-11-10T07:07:40.740Z,74.90
2018-11-10T07:10:09.364Z,96.10
2018-11-10T07:12:37.615Z,87.70
2018-11-10T07:15:06.608Z,79.63
2018-11-10T07:17:34.791Z,87.90
2018-11-10T07:20:03.063Z,66.97
2018-11-10T07:22:31.259Z,74.07
2018-11-10T07:24:59.565Z,83.97
2018-11-10T07:27:27.877Z,83.73
2018-11-10T07:29:56.079Z,81.33
2018-11-10T07:32:24.493Z,83.97
2018-11-10T07:34:52.721Z,77.57
2018-11-10T07:37:20.959Z,73.83
2018-11-10T07:39:49.210Z,81.53
2018-11-10T07:42:17.617Z,71.73
2018-11-10T07:44:45.831Z,75.33
2018-11-10T07:47:14.139Z,71.97
2018-11-10T07:49:42.423Z,84.57
2018-11-10T07:52:10.818Z,76.70
2018-11-10T07:54:39.330Z,78.53
2018-11-10T07:57:07.772Z,74.20
2018-11-10T07:59:35.994Z,85.87
2018-11-10T08:02:04.435Z,78.70
2018-11-10T08:04:32.601Z,74.37
2018-11-10T08:07:01.074Z,71.47
2018-11-10T08:09:29.416Z,77.07
2018-11-10T08:11:57.871Z,65.47
2018-11-10T08:14:27.066Z,83.87
2018-11-10T08:16:55.269Z,78.93
2018-11-10T08:19:23.756Z,65.50
2018-11-10T08:21:51.904Z,60.10
2018-11-10T08:24:20.149Z,60.53
2018-11-10T08:26:49.318Z,67.97
2018-11-10T08:29:20.341Z,63.03
2018-11-10T08:31:48.945Z,71.20
2018-11-10T08:34:17.412Z,62.87
2018-11-10T08:36:45.877Z,62.20
2018-11-10T08:39:14.517Z,53.90
2018-11-10T08:41:42.898Z,53.83
2018-11-10T08:44:11.674Z,46.00
2018-11-10T08:46:40.337Z,48.10
2018-11-10T08:49:08.786Z,53.93
2018-11-10T08:51:37.584Z,54.70
2018-11-10T08:54:06.279Z,54.80
2018-11-10T08:56:34.703Z,52.33
2018-11-10T08:59:03.132Z,48.73
2018-11-10T09:01:31.407Z,50.80
2018-11-10T09:03:59.863Z,42.80
2018-11-10T09:06:27.976Z,50.67
2018-11-10T09:08:56.160Z,46.30
2018-11-10T09:11:24.331Z,54.67
2018-11-10T09:13:52.521Z,43.40
2018-11-10T09:16:20.696Z,49.67
2018-11-10T09:18:48.866Z,48.73
2018-11-10T09:21:17.919Z,41.20
2018-11-10T09:23:46.068Z,49.33
2018-11-10T09:26:14.219Z,44.67
2018-11-10T09:28:42.364Z,46.60
2018-11-10T09:31:10.589Z,53.60
2018-11-10T09:33:38.728Z,56.87
2018-11-10T09:36:06.917Z,39.70
2018-11-10T09:38:35.087Z,38.50
2018-11-10T09:41:03.286Z,47.80
2018-11-10T09:43:31.650Z,58.07
2018-11-10T09:45:59.803Z,43.87
2018-11-10T09:48:28.099Z,45.83
2018-11-10T09:50:56.349Z,41.70
2018-11-10T09:53:24.444Z,37.97
2018-11-10T09:55:52.653Z,43.97
2018-11-10T09:58:20.784Z,37.80
2018-11-10T10:00:49.027Z,46.73
2018-11-10T10:03:17.113Z,45.37
2018-11-10T10:05:45.203Z,42.83
2018-11-10T10:09:37.903Z,38.90
2018-11-10T10:12:06.065Z,43.03
2018-11-10T10:14:34.200Z,48.97
2018-11-10T10:17:02.437Z,46.10
2018-11-10T10:19:30.555Z,46.53
2018-11-10T10:21:58.834Z,42.27
2018-11-10T10:24:26.935Z,47.30
2018-11-10T10:26:55.090Z,44.63
2018-11-10T10:29:23.279Z,43.17
2018-11-10T10:31:51.472Z,41.97
2018-11-10T10:34:19.610Z,37.13
2018-11-10T10:36:47.756Z,47.00
2018-11-10T10:39:16.892Z,38.90
2018-11-10T10:41:45.043Z,41.00
2018-11-10T10:44:13.317Z,38.30
2018-11-10T10:46:41.558Z,42.80
2018-11-10T10:49:09.998Z,41.43
2018-11-10T10:51:38.229Z,42.37
2018-11-10T10:54:06.458Z,41.77
2018-11-10T10:56:34.803Z,40.80
2018-11-10T10:59:02.788Z,38.40
2018-11-10T11:01:36.409Z,42.13
2018-11-10T11:04:10.327Z,37.13
2018-11-10T11:06:38.510Z,45.80
2018-11-10T11:09:07.041Z,39.47
2018-11-10T11:11:35.163Z,41.37
2018-11-10T11:14:03.284Z,44.63
2018-11-10T11:16:31.460Z,41.23
2018-11-10T11:18:59.639Z,43.30
2018-11-10T11:21:27.880Z,42.03
2018-11-10T11:23:56.044Z,48.97
2018-11-10T11:26:24.189Z,52.57
2018-11-10T11:28:52.323Z,39.83
2018-11-10T11:31:20.456Z,42.00
2018-11-10T11:33:48.647Z,47.73
2018-11-10T11:36:16.741Z,39.70
2018-11-10T11:38:44.835Z,41.20
2018-11-10T11:41:13.058Z,40.77
2018-11-10T11:43:41.219Z,43.37
2018-11-10T11:46:09.501Z,45.53
2018-11-10T11:48:37.862Z,43.23
2018-11-10T11:51:06.001Z,46.17
2018-11-10T11:53:34.178Z,63.00
2018-11-10T11:56:02.342Z,46.57
2018-11-10T11:58:30.419Z,47.63
2018-11-10T12:00:58.598Z,44.70
2018-11-10T12:03:26.672Z,46.80
2018-11-10T12:05:54.867Z,44.03
2018-11-10T12:08:23.120Z,47.40
2018-11-10T12:10:51.313Z,42.53
2018-11-10T12:13:19.492Z,44.57
2018-11-10T12:15:47.890Z,42.83
2018-11-10T12:18:16.323Z,51.20
2018-11-10T12:20:44.527Z,44.30
2018-11-10T12:23:12.975Z,49.20
2018-11-10T12:25:41.149Z,44.90
2018-11-10T12:28:09.707Z,53.23
2018-11-10T12:30:38.175Z,44.33
2018-11-10T12:33:06.448Z,45.47
2018-11-10T12:35:34.575Z,51.77
2018-11-10T12:38:02.993Z,56.17
2018-11-10T12:40:31.151Z,48.07
2018-11-10T12:42:59.399Z,40.60
2018-11-10T12:45:27.468Z,43.57
2018-11-10T12:47:55.564Z,52.47
2018-11-10T12:50:23.799Z,52.67
2018-11-10T12:52:51.996Z,47.93
2018-11-10T12:55:20.085Z,48.17
2018-11-10T12:57:48.316Z,39.20
2018-11-10T13:00:17.218Z,49.20
2018-11-10T13:02:45.814Z,47.53
2018-11-10T13:05:14.102Z,41.37
2018-11-10T13:07:44.003Z,56.60
2018-11-10T13:10:12.383Z,47.20
2018-11-10T13:12:41.228Z,41.53
2018-11-10T13:15:09.805Z,50.37
2018-11-10T13:17:38.370Z,51.30
2018-11-10T13:20:08.659Z,56.37
2018-11-10T13:22:36.782Z,49.57
2018-11-10T13:25:05.588Z,43.60
2018-11-10T13:27:33.721Z,54.57
2018-11-10T13:30:01.932Z,54.00
2018-11-10T13:32:30.073Z,51.53
2018-11-10T13:34:58.481Z,47.90
2018-11-10T13:37:26.653Z,55.90
2018-11-10T13:39:54.897Z,53.43
2018-11-10T13:42:23.214Z,52.73
2018-11-10T13:44:51.351Z,44.07
2018-11-10T13:47:20.684Z,55.73
2018-11-10T13:49:48.855Z,43.10
2018-11-10T13:52:17.441Z,56.70
2018-11-10T13:54:45.347Z,49.20
2018-11-10T13:57:13.446Z,53.37
2018-11-10T13:59:41.760Z,51.27
2018-11-10T14:02:09.921Z,51.80
2018-11-10T14:04:38.110Z,50.20
2018-11-10T14:07:06.259Z,50.50
2018-11-10T14:09:34.459Z,53.27
2018-11-10T14:12:02.679Z,56.60
2018-11-10T14:14:30.848Z,68.53
2018-11-10T14:16:58.956Z,62.23
2018-11-10T14:19:28.235Z,52.27
2018-11-10T14:21:56.339Z,55.83
2018-11-10T14:24:24.604Z,55.13
2018-11-10T14:26:52.984Z,52.43
2018-11-10T14:29:21.156Z,62.00
2018-11-10T14:31:49.382Z,51.13
2018-11-10T14:34:17.521Z,48.37
2018-11-10T14:36:45.718Z,55.50
2018-11-10T14:39:13.899Z,57.70
2018-11-10T14:41:42.368Z,50.33
2018-11-10T14:44:10.564Z,51.87
2018-11-10T14:46:38.711Z,49.70
2018-11-10T14:49:07.438Z,55.63
2018-11-10T14:51:35.553Z,66.20
2018-11-10T14:54:04.000Z,62.97
2018-11-10T14:56:32.131Z,55.73
2018-11-10T14:59:00.272Z,59.67
2018-11-10T15:01:28.524Z,57.17
2018-11-10T15:03:56.633Z,73.67
2018-11-10T15:06:24.822Z,64.40
2018-11-10T15:08:52.999Z,59.17
2018-11-10T15:11:21.213Z,48.53
2018-11-10T15:13:49.371Z,62.20
2018-11-10T15:16:17.615Z,55.93
2018-11-10T15:18:46.020Z,57.60
2018-11-10T15:21:14.400Z,52.80
2018-11-10T15:23:42.559Z,56.97
2018-11-10T15:26:10.778Z,61.37
2018-11-10T15:28:39.182Z,57.03
2018-11-10T15:31:07.462Z,62.37
2018-11-10T15:33:35.662Z,70.90
2018-11-10T15:36:03.913Z,60.47
2018-11-10T15:38:32.088Z,61.17
2018-11-10T15:41:00.335Z,65.83
2018-11-10T15:43:28.512Z,70.60
2018-11-10T15:45:56.701Z,69.77
2018-11-10T15:48:24.780Z,62.90
2018-11-10T15:50:53.132Z,58.37
2018-11-10T15:53:21.247Z,69.13
2018-11-10T15:55:49.449Z,77.43
2018-11-10T15:58:17.664Z,68.03
2018-11-10T16:00:45.780Z,68.33
2018-11-10T16:03:13.922Z,61.00
2018-11-10T16:05:41.997Z,69.03
2018-11-10T16:08:10.239Z,65.93
2018-11-10T16:10:38.341Z,60.50
2018-11-10T16:13:06.456Z,70.27
2018-11-10T16:15:34.662Z,66.60
2018-11-10T16:18:02.777Z,67.67
2018-11-10T16:20:30.968Z,72.73
2018-11-10T16:22:59.126Z,73.30
2018-11-10T16:25:27.355Z,68.83
2018-11-10T16:27:55.573Z,72.17
2018-11-10T16:30:23.631Z,67.23
2018-11-10T16:32:51.722Z,65.67
2018-11-10T16:35:19.910Z,72.60
2018-11-10T16:37:48.079Z,79.43
2018-11-10T16:40:17.681Z,66.80
2018-11-10T16:42:46.761Z,70.43
2018-11-10T16:47:49.859Z,67.93
2018-11-10T16:50:19.185Z,73.53
2018-11-10T16:52:47.451Z,78.17
2018-11-10T16:55:15.812Z,72.67
2018-11-10T16:57:44.073Z,71.90
2018-11-10T17:00:14.302Z,84.37
2018-11-10T17:02:42.642Z,62.43
2018-11-10T17:05:10.797Z,73.67
2018-11-10T17:07:39.448Z,72.07
2018-11-10T17:10:09.728Z,75.43
2018-11-10T17:12:37.920Z,88.77
2018-11-10T17:15:06.428Z,78.20
2018-11-10T17:17:34.572Z,89.77
2018-11-10T17:20:02.759Z,86.40
2018-11-10T17:22:30.965Z,71.83
2018-11-10T17:24:59.318Z,80.37
2018-11-10T17:27:27.454Z,74.17
2018-11-10T17:29:55.663Z,78.73
2018-11-10T17:32:24.129Z,72.07
2018-11-10T17:34:52.634Z,80.93
2018-11-10T17:37:22.442Z,86.23
2018-11-10T17:39:52.090Z,78.03
2018-11-10T17:42:20.270Z,95.50
2018-11-10T17:44:48.446Z,86.47
2018-11-10T17:47:17.519Z,90.77
2018-11-10T17:49:46.043Z,103.50
2018-11-10T17:52:14.985Z,98.20
2018-11-10T17:54:43.096Z,93.90
2018-11-10T17:57:11.400Z,89.10
2018-11-10T17:59:39.561Z,99.30
2018-11-10T18:02:07.824Z,115.90
2018-11-10T18:04:35.925Z,89.03
2018-11-10T18:07:04.096Z,94.77
2018-11-10T18:09:32.283Z,100.60
2018-11-10T18:12:00.424Z,86.50
2018-11-10T18:14:28.676Z,89.20
2018-11-10T18:16:56.913Z,102.63
2018-11-10T18:19:25.252Z,98.47
2018-11-10T18:21:53.436Z,98.83
2018-11-10T18:24:21.678Z,100.33
2018-11-10T18:26:50.043Z,81.17
2018-11-10T18:29:18.333Z,80.63
2018-11-10T18:31:46.636Z,79.33
2018-11-10T18:34:15.767Z,92.67
2018-11-10T18:36:43.997Z,95.90
2018-11-10T18:39:12.455Z,98.63
2018-11-10T18:41:41.044Z,96.60
2018-11-10T18:44:09.642Z,89.90
2018-11-10T18:46:38.379Z,87.97
2018-11-10T18:49:06.550Z,104.00
2018-11-10T18:51:34.748Z,85.03
2018-11-10T18:54:03.047Z,96.97
2018-11-10T18:56:31.288Z,95.97
2018-11-10T18:58:59.407Z,92.97
2018-11-10T19:01:27.612Z,92.53
2018-11-10T19:03:55.866Z,90.40
2018-11-10T19:06:24.184Z,91.07
2018-11-10T19:08:52.282Z,82.77
2018-11-10T19:11:20.657Z,99.13
2018-11-10T19:13:49.015Z,93.33
2018-11-10T19:16:18.009Z,102.63
2018-11-10T19:18:46.279Z,95.90
2018-11-10T19:21:14.466Z,114.30
2018-11-10T19:23:42.739Z,85.60
2018-11-10T19:26:10.907Z,86.77
2018-11-10T19:28:39.161Z,95.30
2018-11-10T19:31:07.356Z,85.43
2018-11-10T19:33:35.546Z,73.60
2018-11-10T19:36:03.674Z,134.23
2018-11-10T19:38:31.848Z,106.87
2018-11-10T19:41:00.096Z,87.83
2018-11-10T19:43:28.193Z,95.50
2018-11-10T19:45:58.319Z,88.00
2018-11-10T19:48:26.592Z,89.77
2018-11-10T19:50:55.206Z,91.67
2018-11-10T19:53:23.183Z,86.10
2018-11-10T19:55:51.887Z,99.23
2018-11-10T19:58:20.210Z,84.23
2018-11-10T20:00:48.430Z,82.27
2018-11-10T20:03:16.654Z,84.90
2018-11-10T20:05:45.011Z,82.03
2018-11-10T20:09:37.945Z,83.80
2018-11-10T20:12:06.911Z,85.47
2018-11-10T20:14:35.166Z,90.97
2018-11-10T20:17:03.515Z,80.10
2018-11-10T20:19:31.833Z,98.40
2018-11-10T20:22:00.757Z,73.80
2018-11-10T20:24:28.910Z,101.77
2018-11-10T20:26:57.088Z,112.33
2018-11-10T20:29:25.247Z,97.70
2018-11-10T20:31:53.468Z,87.23
2018-11-10T20:34:22.476Z,95.47
2018-11-10T20:36:52.544Z,89.13
2018-11-10T20:39:21.252Z,77.53
2018-11-10T20:41:49.428Z,78.10
2018-11-10T20:44:17.664Z,84.50
2018-11-10T20:46:46.316Z,86.20
2018-11-10T20:49:14.500Z,77.67
2018-11-10T20:51:43.213Z,85.80
2018-11-10T20:54:11.409Z,70.53
2018-11-10T20:56:39.539Z,84.03
2018-11-10T20:59:07.669Z,73.90
2018-11-10T21:01:35.993Z,80.13
2018-11-10T21:04:04.084Z,83.60
2018-11-10T21:06:32.381Z,86.33
2018-11-10T21:09:00.551Z,79.23
2018-11-10T21:11:28.703Z,83.73
2018-11-10T21:13:56.940Z,82.40
2018-11-10T21:16:25.072Z,83.17
2018-11-10T21:18:53.360Z,91.27
2018-11-10T21:21:21.511Z,74.53
2018-11-10T21:23:49.792Z,72.57
2018-11-10T21:26:18.005Z,90.13
2018-11-10T21:28:46.303Z,76.17
2018-11-10T21:31:15.543Z,83.00
2018-11-10T21:33:43.979Z,91.37
2018-11-10T21:36:13.230Z,85.80
2018-11-10T21:38:41.440Z,77.63
2018-11-10T21:41:11.597Z,88.70
2018-11-10T21:43:39.932Z,73.20
2018-11-10T21:46:08.252Z,86.93
2018-11-10T21:48:36.465Z,94.33
2018-11-10T21:51:04.982Z,81.47
2018-11-10T21:53:33.139Z,72.30
2018-11-10T21:56:01.440Z,86.40
2018-11-10T21:58:29.564Z,75.93
2018-11-10T22:00:57.817Z,82.87
2018-11-10T22:03:26.128Z,88.10
2018-11-10T22:05:54.556Z,74.33
2018-11-10T22:08:22.825Z,75.70
2018-11-10T22:10:51.023Z,81.43
2018-11-10T22:13:19.535Z,85.07
2018-11-10T22:15:47.763Z,86.40
2018-11-10T22:18:15.976Z,77.80
2018-11-10T22:20:44.160Z,73.43
2018-11-10T22:23:12.531Z,93.50
2018-11-10T22:25:40.515Z,74.33
2018-11-10T22:28:08.680Z,77.97
2018-11-10T22:30:37.033Z,79.97
2018-11-10T22:33:05.223Z,74.23
2018-11-10T22:35:33.459Z,76.30
2018-11-10T22:38:01.575Z,86.00
2018-11-10T22:40:30.274Z,75.10
2018-11-10T22:42:58.471Z,83.83
2018-11-10T22:45:26.612Z,74.87
2018-11-10T22:47:54.847Z,80.27
2018-11-10T22:50:24.280Z,79.03
2018-11-10T22:52:52.548Z,77.70
2018-11-10T22:55:20.662Z,61.53
2018-11-10T22:57:48.876Z,68.13
2018-11-10T23:00:19.024Z,65.30
2018-11-10T23:02:48.403Z,82.37
2018-11-10T23:05:16.965Z,64.33
2018-11-10T23:07:45.160Z,63.33
2018-11-10T23:10:14.079Z,74.43
2018-11-10T23:12:42.871Z,73.50
2018-11-10T23:15:11.188Z,70.20
2018-11-10T23:17:39.663Z,82.83
2018-11-10T23:20:09.525Z,70.17
2018-11-10T23:22:38.188Z,67.07
2018-11-10T23:25:07.631Z,67.73
2018-11-10T23:27:35.871Z,81.90
2018-11-10T23:30:04.572Z,82.57
2018-11-10T23:32:32.768Z,85.80
2018-11-10T23:35:01.096Z,77.33
2018-11-10T23:37:29.229Z,76.57
2018-11-10T23:39:57.576Z,75.63
2018-11-10T23:42:25.779Z,70.77
2018-11-10T23:44:54.167Z,66.90
2018-11-10T23:47:22.341Z,76.40
2018-11-10T23:49:50.571Z,73.37
2018-11-10T23:52:18.759Z,70.53
2018-11-10T23:54:47.000Z,76.10
2018-11-10T23:57:15.241Z,69.20
2018-11-10T23:59:43.463Z,75.93
